sensor_id;sensor_type;location;lat;lon;timestamp;pressure;altitude;pressure_sealevel;temperature;humidity
16613;BME280;8419;52.358;9.752;2023-05-22T00:00:21;100885.00;;;28.59;33.93
16613;BME280;8419;52.358;9.752;2023-05-22T00:03:06;100878.00;;;28.32;34.28
16613;BME280;8419;52.358;9.752;2023-05-22T00:05:53;100874.00;;;28.28;34.34
16613;BME280;8419;52.358;9.752;2023-05-22T00:08:42;100869.00;;;28.28;34.37
16613;BME280;8419;52.358;9.752;2023-05-22T00:11:28;100866.00;;;28.28;34.29
16613;BME280;8419;52.358;9.752;2023-05-22T00:14:14;100865.00;;;28.34;34.21
16613;BME280;8419;52.358;9.752;2023-05-22T00:16:59;100865.00;;;28.27;34.34
16613;BME280;8419;52.358;9.752;2023-05-22T00:19:45;100866.00;;;28.26;34.33
16613;BME280;8419;52.358;9.752;2023-05-22T00:22:31;100856.00;;;28.45;34.01
16613;BME280;8419;52.358;9.752;2023-05-22T00:25:19;100857.00;;;28.21;34.41
16613;BME280;8419;52.358;9.752;2023-05-22T00:28:05;100858.00;;;28.17;34.49
16613;BME280;8419;52.358;9.752;2023-05-22T00:30:50;100846.00;;;28.16;34.51
16613;BME280;8419;52.358;9.752;2023-05-22T00:33:35;100856.00;;;28.14;34.57
16613;BME280;8419;52.358;9.752;2023-05-22T00:36:21;100852.00;;;28.15;34.59
16613;BME280;8419;52.358;9.752;2023-05-22T00:39:07;100852.00;;;28.16;34.57
16613;BME280;8419;52.358;9.752;2023-05-22T00:41:53;100857.00;;;28.23;34.45
16613;BME280;8419;52.358;9.752;2023-05-22T00:44:38;100848.00;;;28.19;34.53
16613;BME280;8419;52.358;9.752;2023-05-22T00:47:25;100854.00;;;28.40;34.21
16613;BME280;8419;52.358;9.752;2023-05-22T00:50:12;100851.00;;;28.43;34.17
16613;BME280;8419;52.358;9.752;2023-05-22T00:52:57;100849.00;;;28.18;34.60
16613;BME280;8419;52.358;9.752;2023-05-22T00:55:43;100854.00;;;28.37;34.30
16613;BME280;8419;52.358;9.752;2023-05-22T00:58:29;100846.00;;;28.48;34.13
16613;BME280;8419;52.358;9.752;2023-05-22T01:01:14;100854.00;;;28.40;34.27
16613;BME280;8419;52.358;9.752;2023-05-22T01:04:01;100847.00;;;28.47;34.14
16613;BME280;8419;52.358;9.752;2023-05-22T01:06:52;100852.00;;;28.44;34.18
16613;BME280;8419;52.358;9.752;2023-05-22T01:09:38;100854.00;;;28.50;34.10
16613;BME280;8419;52.358;9.752;2023-05-22T01:12:29;100846.00;;;28.52;34.09
16613;BME280;8419;52.358;9.752;2023-05-22T01:15:22;100836.00;;;28.49;34.12
16613;BME280;8419;52.358;9.752;2023-05-22T01:18:12;100834.00;;;28.19;34.62
16613;BME280;8419;52.358;9.752;2023-05-22T01:21:08;100836.00;;;28.17;34.67
16613;BME280;8419;52.358;9.752;2023-05-22T01:24:13;100835.00;;;28.06;34.81
16613;BME280;8419;52.358;9.752;2023-05-22T01:33:42;100834.00;;;27.94;34.89
16613;BME280;8419;52.358;9.752;2023-05-22T01:36:31;100835.00;;;28.09;34.64
16613;BME280;8419;52.358;9.752;2023-05-22T01:39:19;100831.00;;;28.10;34.52
16613;BME280;8419;52.358;9.752;2023-05-22T01:42:05;100825.00;;;27.82;34.94
16613;BME280;8419;52.358;9.752;2023-05-22T01:44:52;100827.00;;;28.05;34.57
16613;BME280;8419;52.358;9.752;2023-05-22T01:47:37;100820.00;;;27.84;34.93
16613;BME280;8419;52.358;9.752;2023-05-22T01:50:23;100825.00;;;27.95;34.64
16613;BME280;8419;52.358;9.752;2023-05-22T01:53:17;100826.00;;;27.63;35.18
16613;BME280;8419;52.358;9.752;2023-05-22T01:56:09;100835.00;;;27.57;35.28
16613;BME280;8419;52.358;9.752;2023-05-22T01:59:03;100838.00;;;27.54;35.30
16613;BME280;8419;52.358;9.752;2023-05-22T02:01:54;100837.00;;;27.55;35.24
16613;BME280;8419;52.358;9.752;2023-05-22T02:04:44;100832.00;;;27.52;35.24
16613;BME280;8419;52.358;9.752;2023-05-22T02:07:32;100822.00;;;27.46;35.31
16613;BME280;8419;52.358;9.752;2023-05-22T02:10:21;100826.00;;;27.42;35.34
16613;BME280;8419;52.358;9.752;2023-05-22T02:13:08;100833.00;;;27.43;35.29
16613;BME280;8419;52.358;9.752;2023-05-22T02:15:54;100824.00;;;27.38;35.35
16613;BME280;8419;52.358;9.752;2023-05-22T02:18:40;100815.00;;;27.55;35.03
16613;BME280;8419;52.358;9.752;2023-05-22T02:21:26;100819.00;;;27.29;35.42
16613;BME280;8419;52.358;9.752;2023-05-22T02:24:11;100820.00;;;27.25;35.47
16613;BME280;8419;52.358;9.752;2023-05-22T02:26:58;100813.00;;;27.38;35.26
16613;BME280;8419;52.358;9.752;2023-05-22T02:29:43;100814.00;;;27.44;35.12
16613;BME280;8419;52.358;9.752;2023-05-22T02:32:28;100810.00;;;27.36;35.27
16613;BME280;8419;52.358;9.752;2023-05-22T02:35:15;100806.00;;;27.17;35.52
16613;BME280;8419;52.358;9.752;2023-05-22T02:38:01;100806.00;;;27.23;35.43
16613;BME280;8419;52.358;9.752;2023-05-22T02:40:47;100805.00;;;27.26;35.32
16613;BME280;8419;52.358;9.752;2023-05-22T02:43:34;100804.00;;;27.27;35.29
16613;BME280;8419;52.358;9.752;2023-05-22T02:46:19;100800.00;;;26.92;35.86
16613;BME280;8419;52.358;9.752;2023-05-22T02:49:05;100788.00;;;26.87;35.91
16613;BME280;8419;52.358;9.752;2023-05-22T02:51:51;100791.00;;;26.83;35.95
16613;BME280;8419;52.358;9.752;2023-05-22T02:54:36;100784.00;;;26.81;35.94
16613;BME280;8419;52.358;9.752;2023-05-22T02:57:22;100794.00;;;26.84;35.88
16613;BME280;8419;52.358;9.752;2023-05-22T03:00:10;100783.00;;;26.77;35.95
16613;BME280;8419;52.358;9.752;2023-05-22T03:02:56;100788.00;;;26.70;36.03
16613;BME280;8419;52.358;9.752;2023-05-22T03:05:42;100792.00;;;26.61;36.10
16613;BME280;8419;52.358;9.752;2023-05-22T03:08:29;100791.00;;;26.52;36.28
16613;BME280;8419;52.358;9.752;2023-05-22T03:11:15;100796.00;;;26.52;36.26
16613;BME280;8419;52.358;9.752;2023-05-22T03:14:00;100796.00;;;26.49;36.30
16613;BME280;8419;52.358;9.752;2023-05-22T03:16:46;100784.00;;;26.52;36.27
16613;BME280;8419;52.358;9.752;2023-05-22T03:19:32;100785.00;;;26.47;36.28
16613;BME280;8419;52.358;9.752;2023-05-22T03:22:17;100781.00;;;26.60;36.06
16613;BME280;8419;52.358;9.752;2023-05-22T03:25:04;100780.00;;;26.58;35.99
16613;BME280;8419;52.358;9.752;2023-05-22T03:27:53;100783.00;;;26.49;36.11
16613;BME280;8419;52.358;9.752;2023-05-22T03:30:39;100797.00;;;26.46;36.13
16613;BME280;8419;52.358;9.752;2023-05-22T03:33:24;100789.00;;;26.61;35.87
16613;BME280;8419;52.358;9.752;2023-05-22T03:36:10;100794.00;;;26.67;35.74
16613;BME280;8419;52.358;9.752;2023-05-22T03:38:56;100787.00;;;26.63;35.78
16613;BME280;8419;52.358;9.752;2023-05-22T03:41:41;100799.00;;;26.51;35.97
16613;BME280;8419;52.358;9.752;2023-05-22T03:44:27;100786.00;;;26.50;35.98
16613;BME280;8419;52.358;9.752;2023-05-22T03:47:12;100791.00;;;26.49;35.98
16613;BME280;8419;52.358;9.752;2023-05-22T03:49:58;100795.00;;;26.48;35.97
16613;BME280;8419;52.358;9.752;2023-05-22T03:52:43;100793.00;;;26.44;36.03
16613;BME280;8419;52.358;9.752;2023-05-22T03:55:29;100790.00;;;26.59;35.79
16613;BME280;8419;52.358;9.752;2023-05-22T03:58:14;100796.00;;;26.54;35.79
16613;BME280;8419;52.358;9.752;2023-05-22T04:01:00;100789.00;;;26.46;35.92
16613;BME280;8419;52.358;9.752;2023-05-22T04:03:46;100795.00;;;26.71;35.44
16613;BME280;8419;52.358;9.752;2023-05-22T04:06:31;100792.00;;;26.72;35.38
16613;BME280;8419;52.358;9.752;2023-05-22T04:09:18;100798.00;;;26.70;35.44
16613;BME280;8419;52.358;9.752;2023-05-22T04:12:04;100794.00;;;26.61;35.53
16613;BME280;8419;52.358;9.752;2023-05-22T04:14:50;100792.00;;;26.57;35.59
16613;BME280;8419;52.358;9.752;2023-05-22T04:17:39;100794.00;;;26.61;35.53
16613;BME280;8419;52.358;9.752;2023-05-22T04:20:25;100793.00;;;26.62;35.48
16613;BME280;8419;52.358;9.752;2023-05-22T04:23:11;100799.00;;;26.70;35.35
16613;BME280;8419;52.358;9.752;2023-05-22T04:26:00;100798.00;;;26.67;35.40
16613;BME280;8419;52.358;9.752;2023-05-22T04:28:46;100800.00;;;26.71;35.34
16613;BME280;8419;52.358;9.752;2023-05-22T04:31:32;100804.00;;;26.75;35.29
16613;BME280;8419;52.358;9.752;2023-05-22T04:34:17;100806.00;;;26.78;35.19
16613;BME280;8419;52.358;9.752;2023-05-22T04:37:05;100804.00;;;26.86;35.06
16613;BME280;8419;52.358;9.752;2023-05-22T04:39:51;100795.00;;;26.87;34.99
16613;BME280;8419;52.358;9.752;2023-05-22T04:42:37;100803.00;;;27.08;34.64
16613;BME280;8419;52.358;9.752;2023-05-22T04:45:24;100799.00;;;26.97;34.77
16613;BME280;8419;52.358;9.752;2023-05-22T04:48:10;100804.00;;;26.93;34.86
16613;BME280;8419;52.358;9.752;2023-05-22T04:50:56;100799.00;;;27.16;34.47
16613;BME280;8419;52.358;9.752;2023-05-22T04:53:42;100793.00;;;27.24;34.32
16613;BME280;8419;52.358;9.752;2023-05-22T04:56:28;100797.00;;;27.05;34.61
16613;BME280;8419;52.358;9.752;2023-05-22T04:59:13;100794.00;;;27.26;34.27
16613;BME280;8419;52.358;9.752;2023-05-22T05:02:00;100791.00;;;27.39;34.03
16613;BME280;8419;52.358;9.752;2023-05-22T05:04:46;100786.00;;;27.38;34.02
16613;BME280;8419;52.358;9.752;2023-05-22T05:07:34;100789.00;;;27.46;33.87
16613;BME280;8419;52.358;9.752;2023-05-22T05:10:20;100774.00;;;27.48;33.81
16613;BME280;8419;52.358;9.752;2023-05-22T05:13:06;100790.00;;;27.40;33.93
16613;BME280;8419;52.358;9.752;2023-05-22T05:15:53;100777.00;;;27.47;33.82
16613;BME280;8419;52.358;9.752;2023-05-22T05:18:39;100772.00;;;27.48;33.78
16613;BME280;8419;52.358;9.752;2023-05-22T05:21:27;100779.00;;;27.40;33.93
16613;BME280;8419;52.358;9.752;2023-05-22T05:24:12;100772.00;;;27.50;33.78
16613;BME280;8419;52.358;9.752;2023-05-22T05:26:57;100780.00;;;27.57;33.70
16613;BME280;8419;52.358;9.752;2023-05-22T05:29:43;100777.00;;;27.44;33.90
16613;BME280;8419;52.358;9.752;2023-05-22T05:32:28;100779.00;;;27.48;33.80
16613;BME280;8419;52.358;9.752;2023-05-22T05:35:14;100778.00;;;27.57;33.65
16613;BME280;8419;52.358;9.752;2023-05-22T05:37:59;100770.00;;;27.31;34.06
16613;BME280;8419;52.358;9.752;2023-05-22T05:40:46;100778.00;;;27.26;34.19
16613;BME280;8419;52.358;9.752;2023-05-22T05:43:32;100777.00;;;27.22;34.30
16613;BME280;8419;52.358;9.752;2023-05-22T05:46:18;100775.00;;;27.32;34.16
16613;BME280;8419;52.358;9.752;2023-05-22T05:49:06;100771.00;;;27.45;34.02
16613;BME280;8419;52.358;9.752;2023-05-22T05:51:56;100779.00;;;27.63;33.73
16613;BME280;8419;52.358;9.752;2023-05-22T05:54:41;100780.00;;;27.63;33.70
16613;BME280;8419;52.358;9.752;2023-05-22T05:57:32;100781.00;;;27.67;33.68
16613;BME280;8419;52.358;9.752;2023-05-22T06:00:19;100788.00;;;27.88;33.39
16613;BME280;8419;52.358;9.752;2023-05-22T06:03:06;100782.00;;;27.66;33.75
16613;BME280;8419;52.358;9.752;2023-05-22T06:05:52;100781.00;;;27.67;33.79
16613;BME280;8419;52.358;9.752;2023-05-22T06:08:39;100782.00;;;28.02;33.21
16613;BME280;8419;52.358;9.752;2023-05-22T06:11:25;100788.00;;;27.91;33.54
16613;BME280;8419;52.358;9.752;2023-05-22T06:14:12;100783.00;;;27.85;33.60
16613;BME280;8419;52.358;9.752;2023-05-22T06:16:58;100785.00;;;27.89;33.58
16613;BME280;8419;52.358;9.752;2023-05-22T06:19:44;100780.00;;;27.91;33.56
16613;BME280;8419;52.358;9.752;2023-05-22T06:22:29;100783.00;;;27.91;33.51
16613;BME280;8419;52.358;9.752;2023-05-22T06:25:17;100779.00;;;27.95;33.51
16613;BME280;8419;52.358;9.752;2023-05-22T06:28:04;100778.00;;;28.08;33.34
16613;BME280;8419;52.358;9.752;2023-05-22T06:30:50;100783.00;;;28.01;33.45
16613;BME280;8419;52.358;9.752;2023-05-22T06:33:36;100792.00;;;27.95;33.58
16613;BME280;8419;52.358;9.752;2023-05-22T06:36:21;100778.00;;;27.95;33.60
16613;BME280;8419;52.358;9.752;2023-05-22T06:39:08;100794.00;;;28.37;33.01
16613;BME280;8419;52.358;9.752;2023-05-22T06:41:53;100787.00;;;28.39;32.95
16613;BME280;8419;52.358;9.752;2023-05-22T06:44:39;100797.00;;;28.42;32.96
16613;BME280;8419;52.358;9.752;2023-05-22T06:47:27;100791.00;;;28.32;33.16
16613;BME280;8419;52.358;9.752;2023-05-22T06:50:18;100796.00;;;28.42;33.08
16613;BME280;8419;52.358;9.752;2023-05-22T06:53:27;100796.00;;;28.42;33.11
16613;BME280;8419;52.358;9.752;2023-05-22T06:56:15;100804.00;;;28.52;32.99
16613;BME280;8419;52.358;9.752;2023-05-22T06:59:01;100800.00;;;28.47;33.08
16613;BME280;8419;52.358;9.752;2023-05-22T07:01:46;100805.00;;;28.57;32.96
16613;BME280;8419;52.358;9.752;2023-05-22T07:04:32;100796.00;;;28.51;33.14
16613;BME280;8419;52.358;9.752;2023-05-22T07:07:17;100799.00;;;28.57;33.12
16613;BME280;8419;52.358;9.752;2023-05-22T07:10:05;100803.00;;;28.90;32.65
16613;BME280;8419;52.358;9.752;2023-05-22T07:12:51;100794.00;;;28.96;32.63
16613;BME280;8419;52.358;9.752;2023-05-22T07:15:36;100800.00;;;28.91;32.78
16613;BME280;8419;52.358;9.752;2023-05-22T07:18:22;100799.00;;;28.79;33.04
16613;BME280;8419;52.358;9.752;2023-05-22T07:21:07;100799.00;;;28.82;33.06
16613;BME280;8419;52.358;9.752;2023-05-22T07:23:53;100803.00;;;28.86;33.08
16613;BME280;8419;52.358;9.752;2023-05-22T07:26:40;100792.00;;;28.95;33.03
16613;BME280;8419;52.358;9.752;2023-05-22T07:29:30;100794.00;;;29.01;32.97
16613;BME280;8419;52.358;9.752;2023-05-22T07:32:15;100798.00;;;29.00;33.00
16613;BME280;8419;52.358;9.752;2023-05-22T07:35:01;100799.00;;;29.25;32.66
16613;BME280;8419;52.358;9.752;2023-05-22T07:37:47;100799.00;;;29.35;32.51
16613;BME280;8419;52.358;9.752;2023-05-22T07:40:32;100792.00;;;29.16;32.80
16613;BME280;8419;52.358;9.752;2023-05-22T07:43:18;100791.00;;;29.28;32.73
16613;BME280;8419;52.358;9.752;2023-05-22T07:46:03;100788.00;;;29.15;33.00
16613;BME280;8419;52.358;9.752;2023-05-22T07:48:53;100785.00;;;29.43;32.75
16613;BME280;8419;52.358;9.752;2023-05-22T07:51:38;100783.00;;;29.28;33.00
16613;BME280;8419;52.358;9.752;2023-05-22T07:54:25;100784.00;;;29.32;32.99
16613;BME280;8419;52.358;9.752;2023-05-22T07:57:13;100796.00;;;29.40;33.00
16613;BME280;8419;52.358;9.752;2023-05-22T08:00:00;100776.00;;;29.46;32.97
16613;BME280;8419;52.358;9.752;2023-05-22T08:02:56;100778.00;;;29.48;32.96
16613;BME280;8419;52.358;9.752;2023-05-22T08:05:42;100783.00;;;29.69;32.69
16613;BME280;8419;52.358;9.752;2023-05-22T08:08:27;100784.00;;;29.55;32.94
16613;BME280;8419;52.358;9.752;2023-05-22T08:11:13;100797.00;;;29.76;32.69
16613;BME280;8419;52.358;9.752;2023-05-22T08:13:58;100793.00;;;29.67;32.80
16613;BME280;8419;52.358;9.752;2023-05-22T08:16:44;100788.00;;;29.71;32.78
16613;BME280;8419;52.358;9.752;2023-05-22T08:19:30;100790.00;;;29.79;32.77
16613;BME280;8419;52.358;9.752;2023-05-22T08:22:16;100793.00;;;29.87;32.69
16613;BME280;8419;52.358;9.752;2023-05-22T08:25:02;100790.00;;;29.91;32.74
16613;BME280;8419;52.358;9.752;2023-05-22T08:27:48;100784.00;;;30.01;32.69
16613;BME280;8419;52.358;9.752;2023-05-22T08:30:33;100781.00;;;30.19;32.47
16613;BME280;8419;52.358;9.752;2023-05-22T08:33:20;100780.00;;;30.19;32.56
16613;BME280;8419;52.358;9.752;2023-05-22T08:36:06;100780.00;;;30.38;32.26
16613;BME280;8419;52.358;9.752;2023-05-22T08:38:51;100772.00;;;30.46;32.17
16613;BME280;8419;52.358;9.752;2023-05-22T08:41:37;100771.00;;;30.53;32.15
16613;BME280;8419;52.358;9.752;2023-05-22T08:44:23;100772.00;;;30.69;31.86
16613;BME280;8419;52.358;9.752;2023-05-22T08:47:10;100767.00;;;30.78;31.74
16613;BME280;8419;52.358;9.752;2023-05-22T08:49:58;100771.00;;;30.88;31.60
16613;BME280;8419;52.358;9.752;2023-05-22T08:52:49;100753.00;;;31.27;31.01
16613;BME280;8419;52.358;9.752;2023-05-22T08:55:34;100755.00;;;31.02;31.54
16613;BME280;8419;52.358;9.752;2023-05-22T08:58:21;100761.00;;;31.37;31.08
16613;BME280;8419;52.358;9.752;2023-05-22T09:01:07;100758.00;;;31.27;31.37
16613;BME280;8419;52.358;9.752;2023-05-22T09:03:53;100753.00;;;31.34;31.26
16613;BME280;8419;52.358;9.752;2023-05-22T09:06:40;100757.00;;;31.43;31.09
16613;BME280;8419;52.358;9.752;2023-05-22T09:09:25;100752.00;;;31.46;31.00
16613;BME280;8419;52.358;9.752;2023-05-22T09:12:13;100754.00;;;31.51;30.97
16613;BME280;8419;52.358;9.752;2023-05-22T09:15:06;100752.00;;;31.59;30.82
16613;BME280;8419;52.358;9.752;2023-05-22T09:17:51;100752.00;;;31.66;30.81
16613;BME280;8419;52.358;9.752;2023-05-22T09:20:38;100751.00;;;31.79;30.72
16613;BME280;8419;52.358;9.752;2023-05-22T09:23:23;100756.00;;;31.88;30.71
16613;BME280;8419;52.358;9.752;2023-05-22T09:26:09;100754.00;;;31.97;30.72
16613;BME280;8419;52.358;9.752;2023-05-22T09:28:55;100745.00;;;32.12;30.63
16613;BME280;8419;52.358;9.752;2023-05-22T09:31:43;100748.00;;;32.35;30.39
16613;BME280;8419;52.358;9.752;2023-05-22T09:34:29;100740.00;;;32.58;30.20
16613;BME280;8419;52.358;9.752;2023-05-22T09:37:14;100748.00;;;32.91;29.79
16613;BME280;8419;52.358;9.752;2023-05-22T09:40:07;100738.00;;;32.96;29.78
16613;BME280;8419;52.358;9.752;2023-05-22T09:42:53;100736.00;;;33.07;29.68
16613;BME280;8419;52.358;9.752;2023-05-22T09:45:38;100738.00;;;33.33;29.40
16613;BME280;8419;52.358;9.752;2023-05-22T09:48:24;100740.00;;;33.31;29.42
16613;BME280;8419;52.358;9.752;2023-05-22T09:51:12;100730.00;;;33.51;29.10
16613;BME280;8419;52.358;9.752;2023-05-22T09:54:02;100736.00;;;33.35;29.28
16613;BME280;8419;52.358;9.752;2023-05-22T09:56:50;100726.00;;;33.28;29.36
16613;BME280;8419;52.358;9.752;2023-05-22T09:59:43;100745.00;;;33.32;29.31
16613;BME280;8419;52.358;9.752;2023-05-22T10:02:37;100730.00;;;33.81;28.73
16613;BME280;8419;52.358;9.752;2023-05-22T10:05:29;100739.00;;;33.86;28.68
16613;BME280;8419;52.358;9.752;2023-05-22T10:08:20;100735.00;;;34.14;28.39
16613;BME280;8419;52.358;9.752;2023-05-22T10:11:08;100737.00;;;34.18;28.29
16613;BME280;8419;52.358;9.752;2023-05-22T10:13:54;100740.00;;;34.27;28.21
16613;BME280;8419;52.358;9.752;2023-05-22T10:16:42;100728.00;;;34.56;27.93
16613;BME280;8419;52.358;9.752;2023-05-22T10:19:28;100733.00;;;34.69;27.77
16613;BME280;8419;52.358;9.752;2023-05-22T10:22:17;100726.00;;;34.65;27.80
16613;BME280;8419;52.358;9.752;2023-05-22T10:25:07;100719.00;;;34.74;27.68
16613;BME280;8419;52.358;9.752;2023-05-22T10:27:54;100715.00;;;34.81;27.60
16613;BME280;8419;52.358;9.752;2023-05-22T10:30:51;100716.00;;;34.92;27.47
16613;BME280;8419;52.358;9.752;2023-05-22T10:33:43;100719.00;;;35.12;27.36
16613;BME280;8419;52.358;9.752;2023-05-22T10:36:41;100710.00;;;35.15;27.34
16613;BME280;8419;52.358;9.752;2023-05-22T10:39:36;100709.00;;;35.36;27.07
16613;BME280;8419;52.358;9.752;2023-05-22T10:42:29;100707.00;;;35.33;27.13
16613;BME280;8419;52.358;9.752;2023-05-22T10:45:16;100697.00;;;35.54;26.98
16613;BME280;8419;52.358;9.752;2023-05-22T10:48:03;100702.00;;;35.68;26.82
16613;BME280;8419;52.358;9.752;2023-05-22T10:50:50;100708.00;;;35.74;26.68
16613;BME280;8419;52.358;9.752;2023-05-22T10:53:37;100707.00;;;35.81;26.54
16613;BME280;8419;52.358;9.752;2023-05-22T10:56:32;100696.00;;;36.07;26.26
16613;BME280;8419;52.358;9.752;2023-05-22T10:59:33;100703.00;;;36.05;26.25
16613;BME280;8419;52.358;9.752;2023-05-22T11:02:19;100694.00;;;35.89;26.43
16613;BME280;8419;52.358;9.752;2023-05-22T11:05:33;100693.00;;;35.84;26.48
16613;BME280;8419;52.358;9.752;2023-05-22T11:08:36;100696.00;;;36.01;26.34
16613;BME280;8419;52.358;9.752;2023-05-22T11:11:24;100688.00;;;36.07;26.35
16613;BME280;8419;52.358;9.752;2023-05-22T11:14:11;100694.00;;;36.07;26.18
16613;BME280;8419;52.358;9.752;2023-05-22T11:17:00;100687.00;;;35.84;26.41
16613;BME280;8419;52.358;9.752;2023-05-22T11:19:55;100690.00;;;35.83;26.41
16613;BME280;8419;52.358;9.752;2023-05-22T11:22:43;100685.00;;;35.93;26.30
16613;BME280;8419;52.358;9.752;2023-05-22T11:25:35;100689.00;;;36.09;26.17
16613;BME280;8419;52.358;9.752;2023-05-22T11:28:24;100678.00;;;36.22;26.04
16613;BME280;8419;52.358;9.752;2023-05-22T11:31:10;100680.00;;;36.40;25.96
16613;BME280;8419;52.358;9.752;2023-05-22T11:33:55;100676.00;;;36.64;25.62
16613;BME280;8419;52.358;9.752;2023-05-22T11:36:40;100674.00;;;36.83;25.40
16613;BME280;8419;52.358;9.752;2023-05-22T11:39:26;100670.00;;;37.14;25.09
16613;BME280;8419;52.358;9.752;2023-05-22T11:42:13;100671.00;;;37.11;25.07
16613;BME280;8419;52.358;9.752;2023-05-22T11:44:59;100669.00;;;37.07;25.12
16613;BME280;8419;52.358;9.752;2023-05-22T11:47:45;100679.00;;;37.16;24.95
16613;BME280;8419;52.358;9.752;2023-05-22T11:50:30;100658.00;;;37.32;24.85
16613;BME280;8419;52.358;9.752;2023-05-22T11:53:16;100663.00;;;37.63;24.54
16613;BME280;8419;52.358;9.752;2023-05-22T11:56:04;100650.00;;;37.99;24.30
16613;BME280;8419;52.358;9.752;2023-05-22T11:58:50;100661.00;;;38.36;23.74
16613;BME280;8419;52.358;9.752;2023-05-22T12:01:36;100658.00;;;38.74;23.31
16613;BME280;8419;52.358;9.752;2023-05-22T12:04:22;100657.00;;;39.04;22.94
16613;BME280;8419;52.358;9.752;2023-05-22T12:07:07;100647.00;;;39.38;22.59
16613;BME280;8419;52.358;9.752;2023-05-22T12:09:55;100650.00;;;39.62;22.37
16613;BME280;8419;52.358;9.752;2023-05-22T12:12:42;100642.00;;;40.03;21.86
16613;BME280;8419;52.358;9.752;2023-05-22T12:15:27;100651.00;;;40.32;21.67
16613;BME280;8419;52.358;9.752;2023-05-22T12:18:13;100648.00;;;40.49;21.47
16613;BME280;8419;52.358;9.752;2023-05-22T12:20:58;100646.00;;;40.66;21.25
16613;BME280;8419;52.358;9.752;2023-05-22T12:23:48;100650.00;;;41.17;20.67
16613;BME280;8419;52.358;9.752;2023-05-22T12:26:34;100646.00;;;41.64;20.24
16613;BME280;8419;52.358;9.752;2023-05-22T12:29:22;100651.00;;;42.01;19.94
16613;BME280;8419;52.358;9.752;2023-05-22T12:32:09;100643.00;;;42.13;19.82
16613;BME280;8419;52.358;9.752;2023-05-22T12:34:57;100643.00;;;42.49;19.49
16613;BME280;8419;52.358;9.752;2023-05-22T12:37:48;100630.00;;;42.82;19.23
16613;BME280;8419;52.358;9.752;2023-05-22T12:40:34;100634.00;;;43.37;18.80
16613;BME280;8419;52.358;9.752;2023-05-22T12:43:22;100637.00;;;43.66;18.51
16613;BME280;8419;52.358;9.752;2023-05-22T12:46:08;100626.00;;;44.10;18.11
16613;BME280;8419;52.358;9.752;2023-05-22T12:48:54;100638.00;;;44.50;17.86
16613;BME280;8419;52.358;9.752;2023-05-22T12:51:40;100634.00;;;44.82;17.63
16613;BME280;8419;52.358;9.752;2023-05-22T12:54:25;100631.00;;;45.21;17.29
16613;BME280;8419;52.358;9.752;2023-05-22T12:57:11;100636.00;;;45.30;17.19
16613;BME280;8419;52.358;9.752;2023-05-22T12:59:57;100627.00;;;45.54;17.00
16613;BME280;8419;52.358;9.752;2023-05-22T13:02:42;100631.00;;;45.24;17.17
16613;BME280;8419;52.358;9.752;2023-05-22T13:05:35;100624.00;;;44.94;17.28
16613;BME280;8419;52.358;9.752;2023-05-22T13:08:20;100618.00;;;44.82;17.35
16613;BME280;8419;52.358;9.752;2023-05-22T13:11:07;100629.00;;;44.63;17.22
16613;BME280;8419;52.358;9.752;2023-05-22T13:14:03;100629.00;;;44.43;17.23
16613;BME280;8419;52.358;9.752;2023-05-22T13:16:49;100618.00;;;43.61;17.79
16613;BME280;8419;52.358;9.752;2023-05-22T13:19:35;100613.00;;;42.74;18.43
16613;BME280;8419;52.358;9.752;2023-05-22T13:22:21;100615.00;;;41.97;18.94
16613;BME280;8419;52.358;9.752;2023-05-22T13:25:08;100613.00;;;41.41;19.38
16613;BME280;8419;52.358;9.752;2023-05-22T13:27:54;100606.00;;;41.16;19.61
16613;BME280;8419;52.358;9.752;2023-05-22T13:30:40;100618.00;;;41.13;19.62
16613;BME280;8419;52.358;9.752;2023-05-22T13:33:25;100606.00;;;40.70;19.96
16613;BME280;8419;52.358;9.752;2023-05-22T13:36:11;100602.00;;;40.19;20.29
16613;BME280;8419;52.358;9.752;2023-05-22T13:38:57;100603.00;;;39.76;20.63
16613;BME280;8419;52.358;9.752;2023-05-22T13:41:43;100595.00;;;39.47;20.89
16613;BME280;8419;52.358;9.752;2023-05-22T13:44:28;100604.00;;;39.26;21.15
16613;BME280;8419;52.358;9.752;2023-05-22T13:47:14;100592.00;;;38.98;21.48
16613;BME280;8419;52.358;9.752;2023-05-22T13:49:59;100579.00;;;38.80;21.66
16613;BME280;8419;52.358;9.752;2023-05-22T13:52:45;100572.00;;;38.59;21.91
16613;BME280;8419;52.358;9.752;2023-05-22T13:55:30;100579.00;;;38.43;22.06
16613;BME280;8419;52.358;9.752;2023-05-22T13:58:16;100569.00;;;38.44;22.18
16613;BME280;8419;52.358;9.752;2023-05-22T14:01:01;100565.00;;;38.52;22.13
16613;BME280;8419;52.358;9.752;2023-05-22T14:03:46;100555.00;;;39.16;21.70
16613;BME280;8419;52.358;9.752;2023-05-22T14:06:32;100549.00;;;41.46;19.75
16613;BME280;8419;52.358;9.752;2023-05-22T14:09:19;100551.00;;;42.86;18.66
16613;BME280;8419;52.358;9.752;2023-05-22T14:12:06;100545.00;;;43.20;18.47
16613;BME280;8419;52.358;9.752;2023-05-22T14:14:51;100548.00;;;43.72;18.24
16613;BME280;8419;52.358;9.752;2023-05-22T14:17:37;100550.00;;;43.63;18.33
16613;BME280;8419;52.358;9.752;2023-05-22T14:20:24;100537.00;;;42.84;19.03
16613;BME280;8419;52.358;9.752;2023-05-22T14:23:10;100543.00;;;41.96;19.80
16613;BME280;8419;52.358;9.752;2023-05-22T14:25:56;100545.00;;;41.16;20.50
16613;BME280;8419;52.358;9.752;2023-05-22T14:28:42;100545.00;;;40.57;21.03
16613;BME280;8419;52.358;9.752;2023-05-22T14:31:28;100533.00;;;40.02;21.46
16613;BME280;8419;52.358;9.752;2023-05-22T14:34:15;100530.00;;;39.43;21.97
16613;BME280;8419;52.358;9.752;2023-05-22T14:37:01;100515.00;;;38.88;22.47
16613;BME280;8419;52.358;9.752;2023-05-22T14:39:46;100523.00;;;38.42;22.89
16613;BME280;8419;52.358;9.752;2023-05-22T14:42:31;100528.00;;;38.09;23.20
16613;BME280;8419;52.358;9.752;2023-05-22T14:45:17;100541.00;;;37.81;23.42
16613;BME280;8419;52.358;9.752;2023-05-22T14:48:02;100530.00;;;37.51;23.67
16613;BME280;8419;52.358;9.752;2023-05-22T14:50:49;100530.00;;;37.11;24.09